createdAt,value
2017-12-08T00:00:19.239Z,7.40
2017-12-08T00:02:46.785Z,7.40
2017-12-08T00:05:14.314Z,7.40
2017-12-08T00:07:42.655Z,7.40
2017-12-08T00:10:10.182Z,7.40
2017-12-08T00:12:37.730Z,7.50
2017-12-08T00:15:05.236Z,7.60
2017-12-08T00:17:33.616Z,7.60
2017-12-08T00:20:01.156Z,7.80
2017-12-08T00:22:28.703Z,7.80
2017-12-08T00:24:56.217Z,7.90
2017-12-08T00:27:23.778Z,8.00
2017-12-08T00:29:52.107Z,8.00
2017-12-08T00:32:19.664Z,8.00
2017-12-08T00:34:47.227Z,8.20
2017-12-08T00:37:15.029Z,8.20
2017-12-08T00:39:42.561Z,8.20
2017-12-08T00:42:10.075Z,8.30
2017-12-08T00:44:37.628Z,8.30
2017-12-08T00:47:05.135Z,8.30
2017-12-08T00:49:32.719Z,8.40
2017-12-08T00:52:00.227Z,8.30
2017-12-08T00:54:27.777Z,8.30
2017-12-08T00:56:55.290Z,8.40
2017-12-08T00:59:23.159Z,8.50
2017-12-08T01:01:50.700Z,8.50
2017-12-08T01:04:18.214Z,8.50
2017-12-08T01:06:45.735Z,8.50
2017-12-08T01:09:13.290Z,8.50
2017-12-08T01:11:40.816Z,8.60
2017-12-08T01:14:08.413Z,8.60
2017-12-08T01:16:35.975Z,8.60
2017-12-08T01:19:03.519Z,8.60
2017-12-08T01:21:31.022Z,8.60
2017-12-08T01:23:58.570Z,8.70
2017-12-08T01:26:26.081Z,8.70
2017-12-08T01:28:53.588Z,8.60
2017-12-08T01:31:21.904Z,8.60
2017-12-08T01:33:49.454Z,8.60
2017-12-08T01:36:16.997Z,8.60
2017-12-08T01:38:44.546Z,8.60
2017-12-08T01:41:12.102Z,8.70
2017-12-08T01:43:40.374Z,8.60
2017-12-08T01:46:07.883Z,8.60
2017-12-08T01:48:35.429Z,8.60
2017-12-08T01:51:02.936Z,8.70
2017-12-08T01:53:30.850Z,8.70
2017-12-08T01:55:58.680Z,8.70
2017-12-08T01:58:26.965Z,8.80
2017-12-08T02:00:54.473Z,8.70
2017-12-08T02:03:22.010Z,8.80
2017-12-08T02:05:49.524Z,8.90
2017-12-08T02:08:17.089Z,8.90
2017-12-08T02:10:44.624Z,8.90
2017-12-08T02:13:12.219Z,8.90
2017-12-08T02:15:39.771Z,9.00
2017-12-08T02:18:07.315Z,8.90
2017-12-08T02:20:34.832Z,8.90
2017-12-08T02:23:02.380Z,8.90
2017-12-08T02:25:29.926Z,9.00
2017-12-08T02:27:57.454Z,8.90
2017-12-08T02:30:24.992Z,9.00
2017-12-08T02:32:52.554Z,9.00
2017-12-08T02:35:20.132Z,9.00
2017-12-08T02:37:47.737Z,9.10
2017-12-08T02:40:15.309Z,9.10
2017-12-08T02:42:42.867Z,9.10
2017-12-08T02:45:10.402Z,9.10
2017-12-08T02:47:38.716Z,9.10
2017-12-08T02:50:06.268Z,9.10
2017-12-08T02:52:33.829Z,9.10
2017-12-08T02:57:54.652Z,9.10
2017-12-08T03:00:22.201Z,9.00
2017-12-08T03:02:49.746Z,9.00
2017-12-08T03:05:17.270Z,9.10
2017-12-08T03:07:44.808Z,9.10
2017-12-08T03:10:12.356Z,9.20
2017-12-08T03:12:39.859Z,9.20
2017-12-08T03:15:07.425Z,9.20
2017-12-08T03:17:35.760Z,9.20
2017-12-08T03:20:03.318Z,9.20
2017-12-08T03:22:30.827Z,9.30
2017-12-08T03:24:59.122Z,9.40
2017-12-08T03:27:26.676Z,9.40
2017-12-08T03:29:54.641Z,9.40
2017-12-08T03:32:22.985Z,9.40
2017-12-08T03:34:50.675Z,9.30
2017-12-08T03:37:18.680Z,9.30
2017-12-08T03:39:46.220Z,9.40
2017-12-08T03:42:13.776Z,9.30
2017-12-08T03:44:41.331Z,9.40
2017-12-08T03:47:08.837Z,9.40
2017-12-08T03:49:36.372Z,9.40
2017-12-08T03:52:03.924Z,9.40
2017-12-08T03:54:31.469Z,9.40
2017-12-08T03:56:59.021Z,9.30
2017-12-08T03:59:26.589Z,9.40
2017-12-08T04:01:54.169Z,9.40
2017-12-08T04:04:21.708Z,9.40
2017-12-08T04:06:49.255Z,9.40
2017-12-08T04:09:17.537Z,9.40
2017-12-08T04:11:45.123Z,9.40
2017-12-08T04:14:12.647Z,9.50
2017-12-08T04:16:40.194Z,9.40
2017-12-08T04:19:07.700Z,9.40
2017-12-08T04:21:35.240Z,9.40
2017-12-08T04:24:02.782Z,9.40
2017-12-08T04:26:30.417Z,9.50
2017-12-08T04:28:57.944Z,9.40
2017-12-08T04:31:25.491Z,9.30
2017-12-08T04:33:53.042Z,9.30
2017-12-08T04:36:20.926Z,9.30
2017-12-08T04:38:48.958Z,9.20
2017-12-08T04:41:17.318Z,9.30
2017-12-08T04:43:44.835Z,9.30
2017-12-08T04:46:12.383Z,9.40
2017-12-08T04:48:39.934Z,9.40
2017-12-08T04:51:07.457Z,9.40
2017-12-08T04:53:35.010Z,9.40
2017-12-08T04:56:02.531Z,9.50
2017-12-08T04:58:30.079Z,9.40
2017-12-08T05:00:57.624Z,9.50
2017-12-08T05:03:26.001Z,9.40
2017-12-08T05:05:54.326Z,9.40
2017-12-08T05:08:21.861Z,9.30
2017-12-08T05:10:49.412Z,9.40
2017-12-08T05:13:16.927Z,9.30
2017-12-08T05:15:44.447Z,9.30
2017-12-08T05:18:12.310Z,9.30
2017-12-08T05:20:40.694Z,9.30
2017-12-08T05:23:08.236Z,9.30
2017-12-08T05:25:35.772Z,9.20
2017-12-08T05:28:03.324Z,9.20
2017-12-08T05:30:30.868Z,9.00
2017-12-08T05:32:58.373Z,8.90
2017-12-08T05:35:25.908Z,8.90
2017-12-08T05:37:53.456Z,8.80
2017-12-08T05:40:20.964Z,8.80
2017-12-08T05:42:48.512Z,8.70
2017-12-08T05:45:16.075Z,8.60
2017-12-08T05:47:43.586Z,8.60
2017-12-08T05:50:11.120Z,8.60
2017-12-08T05:52:39.169Z,8.60
2017-12-08T05:55:06.730Z,8.60
2017-12-08T05:57:34.312Z,8.60
2017-12-08T06:00:01.855Z,8.60
2017-12-08T06:02:29.425Z,8.60
2017-12-08T06:04:56.978Z,8.60
2017-12-08T06:07:24.531Z,8.60
2017-12-08T06:09:52.128Z,8.60
2017-12-08T06:12:19.628Z,8.60
2017-12-08T06:14:47.181Z,8.60
2017-12-08T06:17:15.461Z,8.60
2017-12-08T06:19:43.004Z,8.60
2017-12-08T06:22:11.324Z,8.60
2017-12-08T06:24:38.856Z,8.60
2017-12-08T06:27:07.163Z,8.70
2017-12-08T06:29:34.667Z,8.60
2017-12-08T06:32:02.192Z,8.60
2017-12-08T06:34:30.219Z,8.60
2017-12-08T06:36:58.507Z,8.50
2017-12-08T06:39:26.018Z,8.50
2017-12-08T06:41:53.595Z,8.50
2017-12-08T06:44:21.112Z,8.50
2017-12-08T06:46:48.633Z,8.60
2017-12-08T06:49:16.172Z,8.60
2017-12-08T06:51:44.030Z,8.60
2017-12-08T06:54:11.540Z,8.60
2017-12-08T06:56:39.087Z,8.60
2017-12-08T06:59:06.597Z,8.60
2017-12-08T07:01:34.113Z,8.60
2017-12-08T07:04:01.689Z,8.60
2017-12-08T07:06:29.616Z,8.60
2017-12-08T07:08:58.008Z,8.50
2017-12-08T07:11:27.085Z,8.50
2017-12-08T07:13:54.667Z,8.40
2017-12-08T07:16:22.608Z,8.30
2017-12-08T07:18:50.127Z,8.30
2017-12-08T07:21:17.668Z,8.20
2017-12-08T07:23:45.175Z,8.20
2017-12-08T07:26:12.735Z,8.10
2017-12-08T07:28:40.363Z,8.10
2017-12-08T07:31:08.168Z,8.10
2017-12-08T07:33:36.490Z,8.10
2017-12-08T07:36:04.119Z,8.10
2017-12-08T07:38:32.015Z,8.10
2017-12-08T07:40:59.586Z,8.10
2017-12-08T07:43:27.206Z,8.00
2017-12-08T07:45:54.752Z,8.00
2017-12-08T07:48:22.321Z,8.00
2017-12-08T07:50:49.903Z,8.00
2017-12-08T07:53:17.453Z,8.00
2017-12-08T07:55:45.028Z,8.00
2017-12-08T07:58:12.586Z,8.00
2017-12-08T08:00:40.424Z,8.00
2017-12-08T08:03:07.936Z,8.00
2017-12-08T08:05:35.483Z,8.10
2017-12-08T08:08:03.050Z,8.00
2017-12-08T08:10:30.585Z,8.00
2017-12-08T08:12:58.446Z,8.10
2017-12-08T08:15:25.990Z,8.10
2017-12-08T08:17:53.594Z,8.10
2017-12-08T08:20:21.213Z,8.20
2017-12-08T08:22:48.820Z,8.20
2017-12-08T08:25:16.393Z,8.20
2017-12-08T08:27:43.891Z,8.10
2017-12-08T08:30:11.456Z,8.10
2017-12-08T08:32:39.778Z,8.20
2017-12-08T08:35:07.331Z,8.20
2017-12-08T08:37:34.848Z,8.20
2017-12-08T08:40:02.449Z,8.20
2017-12-08T08:42:30.008Z,8.20
2017-12-08T08:44:57.527Z,8.30
2017-12-08T08:47:25.097Z,8.30
2017-12-08T08:49:52.896Z,8.30
2017-12-08T08:52:20.552Z,8.30
2017-12-08T08:54:48.139Z,8.30
2017-12-08T08:57:15.733Z,8.30
2017-12-08T08:59:43.297Z,8.30
2017-12-08T09:02:10.862Z,8.30
2017-12-08T09:04:39.167Z,8.30
2017-12-08T09:07:06.706Z,8.30
2017-12-08T09:09:34.285Z,8.30
2017-12-08T09:12:01.828Z,8.30
2017-12-08T09:14:29.442Z,8.30
2017-12-08T09:16:56.995Z,8.30
2017-12-08T09:19:24.959Z,8.30
2017-12-08T09:21:52.764Z,8.30
2017-12-08T09:24:20.306Z,8.30
2017-12-08T09:26:47.874Z,8.20
2017-12-08T09:29:15.444Z,8.10
2017-12-08T09:31:43.061Z,7.90
2017-12-08T09:34:10.710Z,7.90
2017-12-08T09:36:38.532Z,7.80
2017-12-08T09:39:06.066Z,7.70
2017-12-08T09:41:33.629Z,7.70
2017-12-08T09:44:01.277Z,7.70
2017-12-08T09:46:28.826Z,7.70
2017-12-08T09:48:56.397Z,7.60
2017-12-08T09:51:23.944Z,7.60
2017-12-08T09:53:51.518Z,7.50
2017-12-08T09:56:19.115Z,7.50
2017-12-08T09:58:46.656Z,7.50
2017-12-08T10:01:14.396Z,7.60
2017-12-08T10:03:41.951Z,7.60
2017-12-08T10:06:09.522Z,7.60
2017-12-08T10:08:37.819Z,7.60
2017-12-08T10:11:05.371Z,7.50
2017-12-08T10:13:32.936Z,7.60
2017-12-08T10:16:00.488Z,7.50
2017-12-08T10:18:28.013Z,7.50
2017-12-08T10:20:55.585Z,7.60
2017-12-08T10:23:23.508Z,7.70
2017-12-08T10:25:51.031Z,7.70
2017-12-08T10:28:18.662Z,7.80
2017-12-08T10:30:46.514Z,8.00
2017-12-08T10:33:14.998Z,8.00
2017-12-08T10:35:42.580Z,8.10
2017-12-08T10:38:10.118Z,8.10
2017-12-08T10:40:37.652Z,8.10
2017-12-08T10:43:05.217Z,8.20
2017-12-08T10:45:33.537Z,8.30
2017-12-08T10:48:01.097Z,8.30
2017-12-08T10:50:28.745Z,8.30
2017-12-08T10:52:56.332Z,8.40
2017-12-08T10:55:23.881Z,8.50
2017-12-08T10:57:51.407Z,8.50
2017-12-08T11:00:19.034Z,8.60
2017-12-08T11:02:46.822Z,8.50
2017-12-08T11:05:14.344Z,8.50
2017-12-08T11:07:41.993Z,8.50
2017-12-08T11:10:09.518Z,8.50
2017-12-08T11:12:37.076Z,8.60
2017-12-08T11:15:04.644Z,8.50
2017-12-08T11:17:32.208Z,8.50
2017-12-08T11:19:59.741Z,8.50
2017-12-08T11:22:27.298Z,8.50
2017-12-08T11:24:55.593Z,8.50
2017-12-08T11:27:23.219Z,8.50
2017-12-08T11:29:50.753Z,8.50
2017-12-08T11:32:18.307Z,8.60
2017-12-08T11:34:45.936Z,8.70
2017-12-08T11:37:13.459Z,8.70
2017-12-08T11:39:41.080Z,8.70
2017-12-08T11:42:08.658Z,8.60
2017-12-08T11:44:36.187Z,8.70
2017-12-08T11:47:03.732Z,8.60
2017-12-08T11:49:31.255Z,8.70
2017-12-08T11:51:58.909Z,8.80
2017-12-08T11:54:26.428Z,8.90
2017-12-08T11:56:53.984Z,8.90
2017-12-08T11:59:21.495Z,8.90
2017-12-08T12:01:49.051Z,8.90
2017-12-08T12:04:16.616Z,8.90
2017-12-08T12:06:44.187Z,8.90
2017-12-08T12:09:12.052Z,8.90
2017-12-08T12:11:39.681Z,9.00
2017-12-08T12:14:07.282Z,9.00
2017-12-08T12:16:35.584Z,8.90
2017-12-08T12:19:04.768Z,8.90
2017-12-08T12:21:32.307Z,8.90
2017-12-08T12:23:59.930Z,8.90
2017-12-08T12:26:27.511Z,8.90
2017-12-08T12:28:55.093Z,8.90
2017-12-08T12:31:23.392Z,8.90
2017-12-08T12:33:50.927Z,8.90
2017-12-08T12:36:19.273Z,8.90
2017-12-08T12:38:46.806Z,8.80
2017-12-08T12:41:14.327Z,8.90
2017-12-08T12:43:41.909Z,8.90
2017-12-08T12:46:09.510Z,9.00
2017-12-08T12:48:37.027Z,9.00
2017-12-08T12:51:04.600Z,8.90
2017-12-08T12:53:32.161Z,8.90
2017-12-08T12:55:59.708Z,8.70
2017-12-08T12:58:27.273Z,8.60
2017-12-08T13:00:55.275Z,8.60
2017-12-08T13:03:22.853Z,8.50
2017-12-08T13:05:51.180Z,8.30
2017-12-08T13:08:18.692Z,8.30
2017-12-08T13:10:47.035Z,7.80
2017-12-08T13:13:14.636Z,7.80
2017-12-08T13:15:42.208Z,7.40
2017-12-08T13:18:09.804Z,7.20
2017-12-08T13:20:37.685Z,7.20
2017-12-08T13:23:05.205Z,7.00
2017-12-08T13:25:33.004Z,6.90
2017-12-08T13:28:00.581Z,6.80
2017-12-08T13:30:28.118Z,6.70
2017-12-08T13:32:55.644Z,6.60
2017-12-08T13:35:23.200Z,6.50
2017-12-08T13:37:51.483Z,6.30
2017-12-08T13:40:19.045Z,6.30
2017-12-08T13:42:47.322Z,6.30
2017-12-08T13:45:14.849Z,6.30
2017-12-08T13:47:43.186Z,6.30
2017-12-08T13:50:10.758Z,6.30
2017-12-08T13:52:38.280Z,6.30
2017-12-08T13:55:17.556Z,6.30
2017-12-08T13:57:45.104Z,6.30
2017-12-08T14:00:12.729Z,6.30
2017-12-08T14:02:40.372Z,6.20
2017-12-08T14:05:07.961Z,6.20
2017-12-08T14:07:35.537Z,6.10
2017-12-08T14:10:03.091Z,6.20
2017-12-08T14:12:30.668Z,6.20
2017-12-08T14:14:58.233Z,6.20
2017-12-08T14:17:26.014Z,6.20
2017-12-08T14:19:53.568Z,6.30
2017-12-08T14:22:21.357Z,6.30
2017-12-08T14:24:48.892Z,6.40
2017-12-08T14:27:16.444Z,6.30
2017-12-08T14:29:44.000Z,6.30
2017-12-08T14:32:11.586Z,6.40
2017-12-08T14:34:39.121Z,6.50
2017-12-08T14:37:06.725Z,6.50
2017-12-08T14:39:34.240Z,6.40
2017-12-08T14:42:01.783Z,6.40
2017-12-08T14:44:29.353Z,6.40
2017-12-08T14:46:56.892Z,6.40
2017-12-08T14:49:24.504Z,6.40
2017-12-08T14:51:52.166Z,6.40
2017-12-08T14:54:20.172Z,6.40
2017-12-08T14:56:47.698Z,6.50
2017-12-08T14:59:15.727Z,6.50
2017-12-08T15:01:43.278Z,6.60
2017-12-08T15:04:11.111Z,6.60
2017-12-08T15:06:38.769Z,6.50
2017-12-08T15:09:06.349Z,6.50
2017-12-08T15:11:33.891Z,6.50
2017-12-08T15:14:01.450Z,6.50
2017-12-08T15:16:29.787Z,6.60
2017-12-08T15:18:57.367Z,6.60
2017-12-08T15:21:24.912Z,6.70
2017-12-08T15:23:52.429Z,6.60
2017-12-08T15:26:20.103Z,6.60
2017-12-08T15:28:47.660Z,6.60
2017-12-08T15:31:15.190Z,6.50
2017-12-08T15:33:43.586Z,6.40
2017-12-08T15:36:11.107Z,6.40
2017-12-08T15:38:38.688Z,6.40
2017-12-08T15:41:06.214Z,6.30
2017-12-08T15:43:33.974Z,6.40
2017-12-08T15:46:01.564Z,6.40
2017-12-08T15:48:29.113Z,6.40
2017-12-08T15:50:57.616Z,6.30
2017-12-08T15:53:25.922Z,6.30
2017-12-08T15:55:53.502Z,6.20
2017-12-08T15:58:21.486Z,6.30
2017-12-08T16:00:49.297Z,6.30
2017-12-08T16:03:17.581Z,6.30
2017-12-08T16:05:45.151Z,6.30
2017-12-08T16:08:13.854Z,6.30
2017-12-08T16:10:41.402Z,6.30
2017-12-08T16:13:08.911Z,6.30
2017-12-08T16:15:36.477Z,6.30
2017-12-08T16:18:04.044Z,6.30
2017-12-08T16:20:31.611Z,6.20
2017-12-08T16:22:59.244Z,6.20
2017-12-08T16:25:26.797Z,6.20
2017-12-08T16:27:54.306Z,6.20
2017-12-08T16:30:21.889Z,6.20
2017-12-08T16:32:49.500Z,6.20
2017-12-08T16:35:17.047Z,6.20
2017-12-08T16:37:44.590Z,6.20
2017-12-08T16:40:12.131Z,6.10
2017-12-08T16:42:39.683Z,6.10
2017-12-08T16:45:07.277Z,6.10
2017-12-08T16:47:34.807Z,6.00
2017-12-08T16:50:02.399Z,6.00
2017-12-08T16:52:29.996Z,6.00
2017-12-08T16:54:57.621Z,6.00
2017-12-08T16:57:25.198Z,6.00
2017-12-08T16:59:52.868Z,6.10
2017-12-08T17:02:20.410Z,6.10
2017-12-08T17:04:48.045Z,6.10
2017-12-08T17:07:15.639Z,6.10
2017-12-08T17:09:43.192Z,6.10
2017-12-08T17:12:10.735Z,6.00
2017-12-08T17:14:38.553Z,6.10
2017-12-08T17:17:06.877Z,6.00
2017-12-08T17:19:34.429Z,6.00
2017-12-08T17:22:02.033Z,6.00
2017-12-08T17:24:29.550Z,5.80
2017-12-08T17:26:57.117Z,5.80
2017-12-08T17:29:24.670Z,5.90
2017-12-08T17:31:52.625Z,6.00
2017-12-08T17:34:20.205Z,6.10
2017-12-08T17:36:48.653Z,6.20
2017-12-08T17:39:16.225Z,6.30
2017-12-08T17:41:43.751Z,6.30
2017-12-08T17:44:11.259Z,6.20
2017-12-08T17:46:38.816Z,6.20
2017-12-08T17:49:06.348Z,6.20
2017-12-08T17:51:33.915Z,6.30
2017-12-08T17:54:01.428Z,6.30
2017-12-08T17:56:29.016Z,6.30
2017-12-08T17:58:57.305Z,6.40
2017-12-08T18:01:24.844Z,6.30
2017-12-08T18:03:53.153Z,6.30
2017-12-08T18:06:20.719Z,6.30
2017-12-08T18:08:48.240Z,6.40
2017-12-08T18:11:15.790Z,6.40
2017-12-08T18:13:43.350Z,6.40
2017-12-08T18:16:11.633Z,6.50
2017-12-08T18:18:39.169Z,6.50
2017-12-08T18:21:06.945Z,6.60
2017-12-08T18:23:34.474Z,6.50
2017-12-08T18:26:02.005Z,6.50
2017-12-08T18:28:29.577Z,6.50
2017-12-08T18:30:57.088Z,6.40
2017-12-08T18:33:24.689Z,6.50
2017-12-08T18:35:52.252Z,6.40
2017-12-08T18:38:19.764Z,6.40
2017-12-08T18:40:48.121Z,6.30
2017-12-08T18:43:15.673Z,6.30
2017-12-08T18:45:43.179Z,6.30
2017-12-08T18:48:10.723Z,6.20
2017-12-08T18:50:38.228Z,6.20
2017-12-08T18:53:05.824Z,6.20
2017-12-08T18:55:33.359Z,6.20
2017-12-08T18:58:00.915Z,6.20
2017-12-08T19:00:28.504Z,6.20
2017-12-08T19:02:56.033Z,6.20
2017-12-08T19:05:23.569Z,6.20
2017-12-08T19:07:51.125Z,6.00
2017-12-08T19:10:18.716Z,5.90
2017-12-08T19:12:46.291Z,5.80
2017-12-08T19:15:13.984Z,5.90
2017-12-08T19:17:41.570Z,5.80
2017-12-08T19:20:09.094Z,5.70
2017-12-08T19:22:36.725Z,5.80
2017-12-08T19:25:04.247Z,5.90
2017-12-08T19:27:31.839Z,5.90
2017-12-08T19:29:59.457Z,5.80
2017-12-08T19:32:27.837Z,5.70
2017-12-08T19:34:56.121Z,5.70
2017-12-08T19:37:23.687Z,5.70
2017-12-08T19:39:51.238Z,5.70
2017-12-08T19:42:18.752Z,5.80
2017-12-08T19:44:46.316Z,5.90
2017-12-08T19:47:13.925Z,5.80
2017-12-08T19:49:41.490Z,5.80
2017-12-08T19:52:09.015Z,5.70
2017-12-08T19:54:37.389Z,5.90
2017-12-08T19:57:04.958Z,5.90
2017-12-08T19:59:32.522Z,5.90
2017-12-08T20:02:00.061Z,5.90
2017-12-08T20:04:27.670Z,5.90
2017-12-08T20:06:55.230Z,5.90
2017-12-08T20:09:22.794Z,6.00
2017-12-08T20:11:50.407Z,6.00
2017-12-08T20:14:17.939Z,6.00
2017-12-08T20:16:45.465Z,6.00
2017-12-08T20:19:13.025Z,6.00
2017-12-08T20:21:40.580Z,6.00
2017-12-08T20:24:08.094Z,6.00
2017-12-08T20:26:35.681Z,6.00
2017-12-08T20:29:03.295Z,6.00
2017-12-08T20:31:30.895Z,6.00
2017-12-08T20:33:58.448Z,6.00
2017-12-08T20:36:26.009Z,5.90
2017-12-08T20:38:53.564Z,5.90
2017-12-08T20:41:21.123Z,5.80
2017-12-08T20:43:48.682Z,5.90
2017-12-08T20:46:16.208Z,5.90
2017-12-08T20:48:43.740Z,5.90
2017-12-08T20:51:11.290Z,6.00
2017-12-08T20:53:38.853Z,6.00
2017-12-08T20:56:06.377Z,6.00
2017-12-08T20:58:33.940Z,6.10
2017-12-08T21:01:01.831Z,6.00
2017-12-08T21:03:30.186Z,6.00
2017-12-08T21:05:57.704Z,6.00
2017-12-08T21:08:25.293Z,6.00
2017-12-08T21:10:52.843Z,6.00
2017-12-08T21:13:20.423Z,5.80
2017-12-08T21:15:47.983Z,5.80
2017-12-08T21:18:15.534Z,5.80
2017-12-08T21:20:43.055Z,5.80
2017-12-08T21:23:10.617Z,5.70
2017-12-08T21:25:38.200Z,5.80
2017-12-08T21:28:05.753Z,5.90
2017-12-08T21:30:33.284Z,6.00
2017-12-08T21:33:00.863Z,6.00
2017-12-08T21:35:28.446Z,6.10
2017-12-08T21:37:55.988Z,6.00
2017-12-08T21:40:23.625Z,6.00
2017-12-08T21:42:51.141Z,6.00
2017-12-08T21:45:19.460Z,6.00
2017-12-08T21:47:47.022Z,6.00
2017-12-08T21:50:14.554Z,6.00
2017-12-08T21:52:42.130Z,5.90
2017-12-08T21:55:09.640Z,5.90
2017-12-08T21:57:37.167Z,5.90
2017-12-08T22:00:04.808Z,5.80
2017-12-08T22:02:32.789Z,5.90
2017-12-08T22:05:00.333Z,5.90
2017-12-08T22:07:28.648Z,5.80
2017-12-08T22:09:56.203Z,5.70
2017-12-08T22:12:23.732Z,5.70
2017-12-08T22:14:51.280Z,5.80
2017-12-08T22:17:18.801Z,5.90
2017-12-08T22:19:46.368Z,5.90
2017-12-08T22:22:14.361Z,5.90
2017-12-08T22:24:42.703Z,5.70
2017-12-08T22:27:10.267Z,5.70
2017-12-08T22:29:37.832Z,5.70
2017-12-08T22:32:05.388Z,5.60
2017-12-08T22:34:33.010Z,5.70
2017-12-08T22:37:00.519Z,5.80
2017-12-08T22:39:28.110Z,5.90
2017-12-08T22:41:56.454Z,5.70
2017-12-08T22:44:23.998Z,5.70
2017-12-08T22:46:51.609Z,5.70
2017-12-08T22:49:19.149Z,5.80
2017-12-08T22:51:46.729Z,5.80
2017-12-08T22:54:15.059Z,5.70
2017-12-08T22:56:42.619Z,5.60
2017-12-08T22:59:10.176Z,5.70
2017-12-08T23:01:37.688Z,5.60
2017-12-08T23:04:06.013Z,5.50
2017-12-08T23:06:33.860Z,5.50
2017-12-08T23:09:01.457Z,5.40
2017-12-08T23:11:28.988Z,5.40
2017-12-08T23:13:56.596Z,5.40
2017-12-08T23:16:24.191Z,5.30
2017-12-08T23:18:52.371Z,5.40
2017-12-08T23:21:19.913Z,5.30
2017-12-08T23:23:47.462Z,5.30
2017-12-08T23:26:15.003Z,5.20
2017-12-08T23:28:42.582Z,5.30
2017-12-08T23:31:10.120Z,5.20
2017-12-08T23:33:38.006Z,5.30
2017-12-08T23:36:06.574Z,5.30
2017-12-08T23:38:34.078Z,5.30
2017-12-08T23:41:01.672Z,5.30
2017-12-08T23:43:29.197Z,5.20
2017-12-08T23:45:56.753Z,5.20
2017-12-08T23:48:24.324Z,5.20
2017-12-08T23:50:51.868Z,5.10
2017-12-08T23:53:19.453Z,5.00
2017-12-08T23:55:46.962Z,5.00
2017-12-08T23:58:15.280Z,5.00
